Time;durP1;ratioP1;P1;durP2;ratioP2;P2;SDS_P1;SDS_P2;PMS_P1;PMS_P2;Temp;Humidity;BMP_temperature;BMP_pressure;BME280_temperature;BME280_humidity;BME280_pressure;Samples;Min_cycle;Max_cycle;Signal;HPM_P1;HPM_P2
2022/06/03 00:01:40;;;;;;;16.17;7.40;;;;;;;;;;4911379;29;20135;-76
2022/06/03 00:04:12;;;;;;;13.50;7.20;;;;;;;;;;4937710;28;20073;-76
2022/06/03 00:06:53;;;;;;;14.60;7.07;;;;;;;;;;4967293;28;20053;-77
2022/06/03 00:09:50;;;;;;;15.98;6.90;;;;;;;;;;4967621;28;20160;-76
2022/06/03 00:12:37;;;;;;;13.07;6.95;;;;;;;;;;4971267;28;20077;-77
2022/06/03 00:15:14;;;;;;;14.27;6.47;;;;;;;;;;4964646;28;20058;-76
2022/06/03 00:18:08;;;;;;;16.50;7.30;;;;;;;;;;4970135;28;20066;-77
2022/06/03 00:21:02;;;;;;;15.30;7.05;;;;;;;;;;4967802;28;20061;-75
2022/06/03 00:23:40;;;;;;;14.80;7.13;;;;;;;;;;4968935;28;20055;-76
2022/06/03 00:26:37;;;;;;;17.45;6.85;;;;;;;;;;4967284;28;20047;-76
2022/06/03 00:29:34;;;;;;;14.65;7.38;;;;;;;;;;4972330;28;20051;-78
2022/06/03 00:32:15;;;;;;;18.25;7.72;;;;;;;;;;4971058;28;20078;-76
2022/06/03 00:35:01;;;;;;;13.77;6.93;;;;;;;;;;4966414;28;20582;-78
2022/06/03 00:37:38;;;;;;;13.13;6.55;;;;;;;;;;4972068;28;20053;-77
2022/06/03 00:40:10;;;;;;;12.50;6.90;;;;;;;;;;4968378;28;20050;-79
2022/06/03 00:42:52;;;;;;;17.02;7.03;;;;;;;;;;4965387;28;20078;-76
2022/06/03 00:45:33;;;;;;;14.85;6.95;;;;;;;;;;4959844;28;20078;-75
2022/06/03 00:48:07;;;;;;;15.45;7.43;;;;;;;;;;4968238;28;20078;-77
2022/06/03 00:51:19;;;;;;;14.82;7.20;;;;;;;;;;4964202;28;20058;-75
2022/06/03 00:54:06;;;;;;;18.23;7.20;;;;;;;;;;4889627;29;20056;-75
2022/06/03 00:56:57;;;;;;;16.02;7.32;;;;;;;;;;4887602;29;20151;-75
2022/06/03 00:59:59;;;;;;;14.27;7.05;;;;;;;;;;4898015;29;20060;-75
2022/06/03 01:02:47;;;;;;;15.73;7.15;;;;;;;;;;4898326;29;20091;-77
2022/06/03 01:05:34;;;;;;;16.65;7.43;;;;;;;;;;4892018;29;20044;-76
2022/06/03 01:08:15;;;;;;;13.38;7.25;;;;;;;;;;4896522;29;20052;-75
2022/06/03 01:11:05;;;;;;;14.30;6.82;;;;;;;;;;4900744;29;20043;-76
2022/06/03 01:13:59;;;;;;;11.40;6.40;;;;;;;;;;4895425;29;20064;-78
2022/06/03 01:16:45;;;;;;;15.80;6.00;;;;;;;;;;4898209;29;20096;-76
2022/06/03 01:19:33;;;;;;;12.30;6.25;;;;;;;;;;4898930;29;20054;-75
2022/06/03 01:22:18;;;;;;;16.67;6.88;;;;;;;;;;4890003;29;20051;-77
2022/06/03 01:25:20;;;;;;;13.02;6.22;;;;;;;;;;4892858;29;20076;-74
2022/06/03 01:28:04;;;;;;;16.13;6.55;;;;;;;;;;4897918;29;20056;-74
2022/06/03 01:30:54;;;;;;;12.98;5.80;;;;;;;;;;4962074;28;20071;-75
2022/06/03 01:33:50;;;;;;;10.35;5.85;;;;;;;;;;4965404;28;20066;-78
2022/06/03 01:36:34;;;;;;;15.43;6.32;;;;;;;;;;4958853;28;20055;-76
2022/06/03 01:39:37;;;;;;;12.68;5.75;;;;;;;;;;4966433;28;20086;-75
2022/06/03 01:43:03;;;;;;;14.50;5.45;;;;;;;;;;4961207;28;20508;-74
2022/06/03 01:45:37;;;;;;;17.45;5.70;;;;;;;;;;4903448;29;20056;-75
2022/06/03 01:48:03;;;;;;;12.63;5.38;;;;;;;;;;4906427;29;20115;-74
2022/06/03 01:50:50;;;;;;;13.57;6.15;;;;;;;;;;4903078;29;20048;-73
2022/06/03 01:53:57;;;;;;;10.70;5.82;;;;;;;;;;4904282;29;20083;-77
2022/06/03 01:56:38;;;;;;;16.30;6.13;;;;;;;;;;4873644;29;20075;-76
2022/06/03 01:59:22;;;;;;;15.88;5.82;;;;;;;;;;4872972;29;20452;-76
2022/06/03 02:02:06;;;;;;;12.25;5.53;;;;;;;;;;4874099;29;20060;-76
2022/06/03 02:04:40;;;;;;;16.20;5.53;;;;;;;;;;4870540;29;20048;-76
2022/06/03 02:07:36;;;;;;;14.00;5.63;;;;;;;;;;4876260;29;20076;-76
2022/06/03 02:10:39;;;;;;;15.55;5.68;;;;;;;;;;4873274;29;20304;-76
2022/06/03 02:13:33;;;;;;;17.70;7.05;;;;;;;;;;4871618;29;20048;-77
2022/06/03 02:16:11;;;;;;;13.75;6.00;;;;;;;;;;4888434;29;20063;-75
2022/06/03 02:19:07;;;;;;;13.85;5.57;;;;;;;;;;4927479;29;20056;-75
2022/06/03 02:21:39;;;;;;;12.93;5.57;;;;;;;;;;4924490;29;20059;-75
2022/06/03 02:24:36;;;;;;;15.40;6.25;;;;;;;;;;4929188;29;20150;-76
2022/06/03 02:27:39;;;;;;;13.27;6.03;;;;;;;;;;4908233;29;20051;-74
2022/06/03 02:30:52;;;;;;;16.65;6.20;;;;;;;;;;4929473;29;20055;-74
2022/06/03 02:33:36;;;;;;;17.20;6.70;;;;;;;;;;4877463;29;20314;-75
2022/06/03 02:36:11;;;;;;;20.60;7.13;;;;;;;;;;4894582;29;20041;-75
2022/06/03 02:38:56;;;;;;;13.73;6.85;;;;;;;;;;4901278;29;20131;-75
2022/06/03 02:41:45;;;;;;;18.13;6.60;;;;;;;;;;4885589;29;20063;-76
2022/06/03 02:44:30;;;;;;;11.77;6.78;;;;;;;;;;4878395;29;20045;-76
2022/06/03 02:47:30;;;;;;;16.33;7.63;;;;;;;;;;4877438;29;20623;-75
2022/06/03 02:49:59;;;;;;;17.00;7.78;;;;;;;;;;4882554;29;20075;-77
2022/06/03 02:53:07;;;;;;;16.33;8.18;;;;;;;;;;4884478;29;20048;-74
2022/06/03 02:55:57;;;;;;;16.25;8.57;;;;;;;;;;4861068;29;20158;-76
2022/06/03 02:58:40;;;;;;;18.98;10.98;;;;;;;;;;4880311;29;20056;-76
2022/06/03 03:01:28;;;;;;;21.65;11.88;;;;;;;;;;4875806;29;20107;-74
2022/06/03 03:04:08;;;;;;;18.42;12.88;;;;;;;;;;4875091;29;20266;-74
2022/06/03 03:07:00;;;;;;;21.88;12.45;;;;;;;;;;4888100;29;20055;-75
2022/06/03 03:09:48;;;;;;;21.08;11.85;;;;;;;;;;4911206;29;20059;-74
2022/06/03 03:12:26;;;;;;;19.73;11.93;;;;;;;;;;4928628;29;20091;-74
2022/06/03 03:15:37;;;;;;;18.30;11.18;;;;;;;;;;4925688;29;20134;-74
2022/06/03 03:18:38;;;;;;;16.77;10.80;;;;;;;;;;4920804;29;20044;-75
2022/06/03 03:21:35;;;;;;;19.38;11.27;;;;;;;;;;4938089;28;20042;-75
2022/06/03 03:24:36;;;;;;;19.60;12.05;;;;;;;;;;4962330;28;20132;-76
2022/06/03 03:27:46;;;;;;;14.80;10.10;;;;;;;;;;4967900;28;20055;-77
2022/06/03 03:30:24;;;;;;;18.65;10.57;;;;;;;;;;4905068;29;20048;-76
2022/06/03 03:33:19;;;;;;;15.98;9.77;;;;;;;;;;4905494;29;20095;-75
2022/06/03 03:36:07;;;;;;;16.33;9.90;;;;;;;;;;4897396;29;20146;-75
2022/06/03 03:39:07;;;;;;;16.02;9.68;;;;;;;;;;4908540;29;20634;-76
2022/06/03 03:41:54;;;;;;;16.40;10.15;;;;;;;;;;4904018;29;20543;-75
2022/06/03 03:44:47;;;;;;;15.82;9.40;;;;;;;;;;4904440;29;20522;-74
2022/06/03 03:47:34;;;;;;;18.45;10.45;;;;;;;;;;4903920;29;20055;-73
2022/06/03 03:50:45;;;;;;;16.85;10.20;;;;;;;;;;4905087;29;20047;-73
2022/06/03 03:53:29;;;;;;;17.80;10.15;;;;;;;;;;4907427;29;20056;-75
2022/06/03 03:56:12;;;;;;;20.73;11.63;;;;;;;;;;4906485;29;20103;-73
2022/06/03 03:58:47;;;;;;;23.30;14.03;;;;;;;;;;4906029;29;20044;-76
2022/06/03 04:01:41;;;;;;;22.88;14.50;;;;;;;;;;4940018;28;20292;-74
2022/06/03 04:04:45;;;;;;;23.87;16.33;;;;;;;;;;4965549;28;20145;-78
2022/06/03 04:07:38;;;;;;;23.77;16.47;;;;;;;;;;4964839;28;20055;-72
2022/06/03 04:10:29;;;;;;;27.00;17.52;;;;;;;;;;4960163;28;20313;-73
2022/06/03 04:13:32;;;;;;;24.70;16.80;;;;;;;;;;4964438;28;20063;-73
2022/06/03 04:16:29;;;;;;;26.40;17.30;;;;;;;;;;4962366;28;20061;-73
2022/06/03 04:19:25;;;;;;;24.98;17.40;;;;;;;;;;4963034;28;20081;-75
2022/06/03 04:22:06;;;;;;;31.52;18.50;;;;;;;;;;4966464;28;20051;-74
2022/06/03 04:24:41;;;;;;;28.75;19.38;;;;;;;;;;4963449;28;20137;-73
2022/06/03 04:27:40;;;;;;;28.00;20.13;;;;;;;;;;4966480;28;20039;-75
2022/06/03 04:30:27;;;;;;;27.88;19.13;;;;;;;;;;4963149;28;20497;-73
2022/06/03 04:33:31;;;;;;;30.63;17.70;;;;;;;;;;4961683;28;20181;-73
2022/06/03 04:36:21;;;;;;;27.88;16.80;;;;;;;;;;4966265;28;20055;-73
2022/06/03 04:39:29;;;;;;;26.52;14.98;;;;;;;;;;4966609;28;20058;-73
2022/06/03 04:42:07;;;;;;;24.33;15.02;;;;;;;;;;4933444;29;20645;-72
2022/06/03 04:44:54;;;;;;;25.35;14.90;;;;;;;;;;4930632;29;20048;-73
2022/06/03 04:47:32;;;;;;;24.02;13.63;;;;;;;;;;4933587;29;20537;-74
2022/06/03 04:50:19;;;;;;;21.95;12.68;;;;;;;;;;4929350;29;20091;-72
2022/06/03 04:53:23;;;;;;;22.10;12.75;;;;;;;;;;4926404;29;20083;-71
2022/06/03 04:56:26;;;;;;;22.60;13.07;;;;;;;;;;4935559;29;20557;-71
2022/06/03 04:59:10;;;;;;;21.23;12.38;;;;;;;;;;4934355;29;20051;-74
2022/06/03 05:01:50;;;;;;;19.13;12.90;;;;;;;;;;4929145;28;20509;-71
2022/06/03 05:04:57;;;;;;;21.90;12.15;;;;;;;;;;4929105;29;20059;-71
2022/06/03 05:07:51;;;;;;;21.85;11.45;;;;;;;;;;4924310;29;20055;-73
2022/06/03 05:10:55;;;;;;;18.17;11.38;;;;;;;;;;4936124;29;20062;-71
2022/06/03 05:13:46;;;;;;;19.00;12.60;;;;;;;;;;4935496;29;20067;-76
2022/06/03 05:16:49;;;;;;;19.92;12.18;;;;;;;;;;4926810;29;20044;-73
2022/06/03 05:19:30;;;;;;;19.83;12.10;;;;;;;;;;4951366;28;20062;-71
2022/06/03 05:22:35;;;;;;;19.00;12.65;;;;;;;;;;4963530;28;20059;-72
2022/06/03 05:25:39;;;;;;;27.75;12.32;;;;;;;;;;4959113;28;20042;-75
2022/06/03 05:28:38;;;;;;;20.02;11.68;;;;;;;;;;4966628;28;20050;-74
2022/06/03 05:31:19;;;;;;;20.15;13.00;;;;;;;;;;4966113;28;20518;-73
2022/06/03 05:34:16;;;;;;;26.40;12.68;;;;;;;;;;4961181;28;20227;-74
2022/06/03 05:37:11;;;;;;;19.42;11.98;;;;;;;;;;4960154;28;20465;-76
2022/06/03 05:39:59;;;;;;;23.27;12.98;;;;;;;;;;4957674;28;20405;-74
2022/06/03 05:42:49;;;;;;;19.35;11.98;;;;;;;;;;4961325;28;20058;-74
2022/06/03 05:45:33;;;;;;;23.60;12.77;;;;;;;;;;4961077;28;20047;-74
2022/06/03 05:48:23;;;;;;;24.73;13.27;;;;;;;;;;4966377;28;20058;-77
2022/06/03 05:50:55;;;;;;;25.00;12.68;;;;;;;;;;4964690;28;20059;-75
2022/06/03 05:53:59;;;;;;;21.70;13.25;;;;;;;;;;4961949;28;20117;-75
2022/06/03 05:56:28;;;;;;;21.05;12.88;;;;;;;;;;4932455;28;20744;-72
2022/06/03 05:59:03;;;;;;;22.98;12.38;;;;;;;;;;4965486;28;20539;-70
2022/06/03 06:01:57;;;;;;;24.85;13.55;;;;;;;;;;4960032;28;20051;-77
2022/06/03 06:04:49;;;;;;;22.27;12.82;;;;;;;;;;4961144;28;20042;-75
2022/06/03 06:07:31;;;;;;;24.75;12.32;;;;;;;;;;4961914;28;20511;-75
2022/06/03 06:10:32;;;;;;;20.40;12.25;;;;;;;;;;4965981;28;20558;-74
2022/06/03 06:13:22;;;;;;;25.23;12.05;;;;;;;;;;4960451;28;20073;-78
2022/06/03 06:16:33;;;;;;;21.88;11.45;;;;;;;;;;4965014;28;20050;-78
2022/06/03 06:19:13;;;;;;;16.75;11.00;;;;;;;;;;4911639;29;20581;-80
2022/06/03 06:21:42;;;;;;;22.65;11.73;;;;;;;;;;4911305;29;20078;-80
2022/06/03 06:24:23;;;;;;;17.40;10.90;;;;;;;;;;4912837;29;20051;-79
2022/06/03 06:27:01;;;;;;;19.52;12.02;;;;;;;;;;4912324;29;20047;-81
2022/06/03 06:29:45;;;;;;;21.30;10.82;;;;;;;;;;4912319;29;20699;-72
2022/06/03 06:32:32;;;;;;;17.33;10.50;;;;;;;;;;4914767;29;20063;-76
2022/06/03 06:35:15;;;;;;;20.60;11.25;;;;;;;;;;4909217;29;20115;-78
2022/06/03 06:38:11;;;;;;;22.13;11.32;;;;;;;;;;4912094;29;20055;-76
2022/06/03 06:40:59;;;;;;;17.80;10.95;;;;;;;;;;4909427;29;20146;-77
2022/06/03 06:44:07;;;;;;;22.85;11.38;;;;;;;;;;4900636;29;20044;-80
2022/06/03 06:46:59;;;;;;;22.35;10.85;;;;;;;;;;4910251;29;20090;-75
2022/06/03 06:49:47;;;;;;;17.90;10.30;;;;;;;;;;4921795;29;20052;-80
2022/06/03 06:52:31;;;;;;;21.50;10.38;;;;;;;;;;4915401;28;20400;-75
2022/06/03 06:55:21;;;;;;;21.55;11.27;;;;;;;;;;4956314;28;20054;-75
2022/06/03 06:57:54;;;;;;;18.30;10.45;;;;;;;;;;4959894;28;20051;-72
2022/06/03 07:00:43;;;;;;;18.47;9.53;;;;;;;;;;4965345;28;20055;-75
2022/06/03 07:03:12;;;;;;;16.27;10.00;;;;;;;;;;4964367;28;20118;-74
2022/06/03 07:05:56;;;;;;;18.95;10.18;;;;;;;;;;4963165;28;20081;-74
2022/06/03 07:08:26;;;;;;;18.85;10.35;;;;;;;;;;4966338;28;20066;-74
2022/06/03 07:11:18;;;;;;;15.82;9.45;;;;;;;;;;4960822;28;20046;-71
2022/06/03 07:13:49;;;;;;;28.17;9.57;;;;;;;;;;4962332;28;20062;-70
2022/06/03 07:20:09;;;;;;;15.65;9.35;;;;;;;;;;4925255;29;20680;-70
2022/06/03 07:22:56;;;;;;;14.38;8.65;;;;;;;;;;4924202;29;20055;-69
2022/06/03 07:25:44;;;;;;;15.75;8.27;;;;;;;;;;4922840;29;20055;-72
2022/06/03 07:28:32;;;;;;;17.52;8.70;;;;;;;;;;4924202;29;20059;-69
2022/06/03 07:31:44;;;;;;;17.77;8.98;;;;;;;;;;4921029;29;20056;-69
2022/06/03 07:34:15;;;;;;;16.48;8.38;;;;;;;;;;4921068;29;20055;-69
2022/06/03 07:36:51;;;;;;;17.42;8.35;;;;;;;;;;4920899;29;20138;-71
2022/06/03 07:39:17;;;;;;;19.27;9.48;;;;;;;;;;4923817;29;20516;-70
2022/06/03 07:41:47;;;;;;;28.13;13.10;;;;;;;;;;4923793;29;20051;-70
2022/06/03 07:44:17;;;;;;;23.77;10.60;;;;;;;;;;4904522;29;20059;-71
2022/06/03 07:46:54;;;;;;;21.25;10.68;;;;;;;;;;4922799;29;20052;-69
2022/06/03 07:49:22;;;;;;;23.40;11.55;;;;;;;;;;4923065;29;20181;-66
2022/06/03 07:51:54;;;;;;;22.73;11.13;;;;;;;;;;4922414;29;20059;-70
2022/06/03 07:54:27;;;;;;;20.88;10.48;;;;;;;;;;4920247;28;20401;-70
2022/06/03 07:57:22;;;;;;;19.33;11.18;;;;;;;;;;4967529;28;20066;-71
2022/06/03 07:59:48;;;;;;;19.85;10.25;;;;;;;;;;4960997;28;20055;-71
2022/06/03 08:02:17;;;;;;;23.45;10.75;;;;;;;;;;4961148;28;20054;-70
2022/06/03 08:04:46;;;;;;;18.73;10.43;;;;;;;;;;4959839;28;20556;-71
2022/06/03 08:13:05;;;;;;;16.08;9.65;;;;;;;;;;4961819;28;20089;-69
2022/06/03 08:15:38;;;;;;;20.88;9.88;;;;;;;;;;4963961;28;20491;-70
2022/06/03 08:18:06;;;;;;;13.88;9.38;;;;;;;;;;4967059;28;20393;-70
2022/06/03 08:20:45;;;;;;;17.70;9.32;;;;;;;;;;4965353;28;20070;-70
2022/06/03 08:23:11;;;;;;;18.73;8.95;;;;;;;;;;4963236;28;20043;-68
2022/06/03 08:25:43;;;;;;;14.73;8.68;;;;;;;;;;4958268;28;20039;-70
2022/06/03 08:28:14;;;;;;;18.73;8.98;;;;;;;;;;4958215;28;20066;-71
2022/06/03 08:30:40;;;;;;;15.18;8.63;;;;;;;;;;4962671;28;20125;-70
2022/06/03 08:33:10;;;;;;;17.45;9.02;;;;;;;;;;4959670;28;20046;-69
2022/06/03 08:35:41;;;;;;;19.25;8.77;;;;;;;;;;4966312;28;20046;-70
2022/06/03 08:38:40;;;;;;;13.63;8.70;;;;;;;;;;4963769;28;20047;-68
2022/06/03 08:41:32;;;;;;;13.48;8.25;;;;;;;;;;4963424;28;20105;-71
2022/06/03 08:44:17;;;;;;;14.30;8.40;;;;;;;;;;4962809;28;20059;-70
2022/06/03 08:46:53;;;;;;;15.95;8.13;;;;;;;;;;4962852;28;20420;-70
2022/06/03 08:49:25;;;;;;;15.10;8.02;;;;;;;;;;4963826;28;20070;-68
2022/06/03 08:51:56;;;;;;;18.73;8.50;;;;;;;;;;4956516;28;20475;-72
2022/06/03 08:54:31;;;;;;;20.48;9.23;;;;;;;;;;4958576;28;20067;-71
2022/06/03 08:57:07;;;;;;;23.02;9.40;;;;;;;;;;4957588;28;20061;-70
2022/06/03 08:59:42;;;;;;;19.40;9.25;;;;;;;;;;4965513;28;20109;-71
2022/06/03 09:02:24;;;;;;;14.40;8.57;;;;;;;;;;4961580;28;20138;-69
2022/06/03 09:05:00;;;;;;;20.13;9.07;;;;;;;;;;4957432;28;20059;-68
2022/06/03 09:07:38;;;;;;;17.25;9.38;;;;;;;;;;4960452;28;20050;-68
2022/06/03 09:10:18;;;;;;;15.98;8.68;;;;;;;;;;4960698;28;20046;-69
2022/06/03 09:12:55;;;;;;;15.02;8.57;;;;;;;;;;4963347;28;20061;-71
2022/06/03 09:15:25;;;;;;;16.60;8.25;;;;;;;;;;4963945;28;20063;-70
2022/06/03 09:18:09;;;;;;;20.83;8.55;;;;;;;;;;4958852;28;20055;-71
2022/06/03 09:21:05;;;;;;;15.75;8.95;;;;;;;;;;4959409;28;20105;-70
2022/06/03 09:23:48;;;;;;;15.20;8.35;;;;;;;;;;4959059;28;20051;-69
2022/06/03 09:26:43;;;;;;;21.05;8.80;;;;;;;;;;4959637;28;20050;-71
2022/06/03 09:29:10;;;;;;;;;;;;;;;;;;4957417;28;20050;-70
2022/06/03 09:31:37;;;;;;;22.50;8.82;;;;;;;;;;4956919;28;19934;-70
2022/06/03 09:34:06;;;;;;;18.20;8.75;;;;;;;;;;4954573;28;20202;-69
2022/06/03 09:36:33;;;;;;;16.23;8.77;;;;;;;;;;4957091;28;20062;-69
2022/06/03 09:39:19;;;;;;;15.63;8.57;;;;;;;;;;4962776;28;20547;-72
2022/06/03 09:41:53;;;;;;;19.60;9.82;;;;;;;;;;4961723;28;20134;-71
2022/06/03 09:44:22;;;;;;;17.23;9.57;;;;;;;;;;4967131;28;20053;-69
2022/06/03 09:46:57;;;;;;;15.75;10.30;;;;;;;;;;4962381;28;20054;-69
2022/06/03 09:49:24;;;;;;;21.52;11.25;;;;;;;;;;4965645;28;20059;-71
2022/06/03 09:51:56;;;;;;;24.10;11.30;;;;;;;;;;4961153;28;21063;-68
2022/06/03 09:54:27;;;;;;;22.08;11.82;;;;;;;;;;4960407;28;20089;-71
2022/06/03 09:56:58;;;;;;;22.00;11.18;;;;;;;;;;4960238;28;20595;-69
2022/06/03 09:59:25;;;;;;;21.27;11.10;;;;;;;;;;4959541;28;20054;-68
2022/06/03 10:01:51;;;;;;;34.83;13.45;;;;;;;;;;4962238;28;20055;-70
2022/06/03 10:04:20;;;;;;;24.92;11.43;;;;;;;;;;4961190;28;20047;-70
2022/06/03 10:06:46;;;;;;;21.45;11.85;;;;;;;;;;4957979;28;20113;-70
2022/06/03 10:17:48;;;;;;;18.98;10.20;;;;;;;;;;4962550;28;20108;-71
2022/06/03 10:20:14;;;;;;;20.65;11.05;;;;;;;;;;4959735;28;20582;-70
2022/06/03 10:22:41;;;;;;;18.92;10.25;;;;;;;;;;4964188;28;20130;-70
2022/06/03 10:25:09;;;;;;;17.70;10.88;;;;;;;;;;4958664;28;20109;-70
2022/06/03 10:27:35;;;;;;;20.83;10.73;;;;;;;;;;4959377;28;20118;-69
2022/06/03 10:30:03;;;;;;;20.15;10.90;;;;;;;;;;4960826;28;20047;-71
2022/06/03 10:32:29;;;;;;;20.33;11.40;;;;;;;;;;4966062;28;20091;-71
2022/06/03 10:35:03;;;;;;;21.00;10.98;;;;;;;;;;4962615;28;20145;-70
2022/06/03 10:37:29;;;;;;;23.75;11.63;;;;;;;;;;4962925;28;21292;-71
2022/06/03 10:39:56;;;;;;;22.98;11.48;;;;;;;;;;4966313;28;20058;-68
2022/06/03 10:42:23;;;;;;;21.83;11.07;;;;;;;;;;4965308;28;20066;-71
2022/06/03 10:44:55;;;;;;;18.58;10.70;;;;;;;;;;4958772;28;20046;-71
2022/06/03 10:47:46;;;;;;;17.13;10.35;;;;;;;;;;4954884;28;20057;-70
2022/06/03 10:50:27;;;;;;;20.35;11.70;;;;;;;;;;4962925;28;20062;-69
2022/06/03 11:01:52;;;;;;;22.70;12.10;;;;;;;;;;4959738;28;20082;-70
2022/06/03 11:04:39;;;;;;;19.70;11.48;;;;;;;;;;4960362;28;20455;-69
2022/06/03 11:07:30;;;;;;;16.45;10.35;;;;;;;;;;4962093;28;20133;-70
2022/06/03 11:09:59;;;;;;;20.17;11.63;;;;;;;;;;4964149;28;20138;-71
2022/06/03 11:12:28;;;;;;;17.85;11.00;;;;;;;;;;4961138;28;20287;-71
2022/06/03 11:14:54;;;;;;;17.25;11.57;;;;;;;;;;4965675;28;20109;-69
2022/06/03 11:17:23;;;;;;;23.17;11.80;;;;;;;;;;4968317;28;20047;-70
2022/06/03 11:19:56;;;;;;;24.45;11.57;;;;;;;;;;4969408;28;20051;-67
2022/06/03 11:22:28;;;;;;;19.23;10.55;;;;;;;;;;4968431;28;20452;-70
2022/06/03 11:24:56;;;;;;;19.52;11.52;;;;;;;;;;4962902;28;20057;-69
2022/06/03 11:28:03;;;;;;;28.20;12.38;;;;;;;;;;4967852;28;20042;-70
2022/06/03 11:30:44;;;;;;;18.55;12.02;;;;;;;;;;4964203;28;20986;-69
2022/06/03 11:33:23;;;;;;;22.48;11.68;;;;;;;;;;4965249;28;20445;-68
2022/06/03 11:36:02;;;;;;;18.13;10.65;;;;;;;;;;4966574;28;20070;-68
2022/06/03 11:38:41;;;;;;;21.65;10.90;;;;;;;;;;4965765;28;20520;-69
2022/06/03 11:41:38;;;;;;;16.23;10.25;;;;;;;;;;4962442;28;20488;-68
2022/06/03 11:44:11;;;;;;;15.82;9.95;;;;;;;;;;4963904;28;20043;-68
2022/06/03 11:46:42;;;;;;;18.27;9.75;;;;;;;;;;4965144;28;20053;-69
2022/06/03 11:49:08;;;;;;;18.67;10.45;;;;;;;;;;4966809;28;20397;-70
2022/06/03 11:51:36;;;;;;;14.52;8.70;;;;;;;;;;4967511;28;20062;-69
2022/06/03 11:54:05;;;;;;;16.17;9.07;;;;;;;;;;4967621;28;20055;-69
2022/06/03 11:56:36;;;;;;;20.23;9.50;;;;;;;;;;4969834;28;20054;-70
2022/06/03 11:59:12;;;;;;;16.77;9.30;;;;;;;;;;4968089;28;20470;-69
2022/06/03 12:02:27;;;;;;;17.17;8.75;;;;;;;;;;4959836;28;20364;-67
2022/06/03 12:05:05;;;;;;;;;;;;;;;;;;4951155;28;20402;-67
2022/06/03 12:08:09;;;;;;;16.67;8.05;;;;;;;;;;4953056;28;19930;-69
2022/06/03 12:10:37;;;;;;;13.50;7.38;;;;;;;;;;4923909;28;20055;-68
2022/06/03 12:13:17;;;;;;;19.88;7.82;;;;;;;;;;4954715;28;20778;-70
2022/06/03 12:16:00;;;;;;;9.75;6.72;;;;;;;;;;4950979;28;20039;-68
2022/06/03 12:18:32;;;;;;;16.47;6.67;;;;;;;;;;4945007;28;20066;-69
2022/06/03 12:21:15;;;;;;;14.73;6.65;;;;;;;;;;4950202;28;20584;-68
2022/06/03 12:23:43;;;;;;;16.35;6.22;;;;;;;;;;4945636;28;20101;-67
2022/06/03 12:26:17;;;;;;;15.75;5.82;;;;;;;;;;4950942;28;20081;-72
2022/06/03 12:28:48;;;;;;;12.43;5.97;;;;;;;;;;4949029;28;20129;-69
2022/06/03 12:31:20;;;;;;;17.30;5.50;;;;;;;;;;4946665;28;20062;-72
2022/06/03 12:33:48;;;;;;;13.02;5.25;;;;;;;;;;4944424;28;20063;-71
2022/06/03 12:36:24;;;;;;;15.05;5.10;;;;;;;;;;4952167;28;20148;-70
2022/06/03 12:39:05;;;;;;;11.60;4.97;;;;;;;;;;4954552;28;20507;-70
2022/06/03 12:41:46;;;;;;;13.55;5.50;;;;;;;;;;4963753;28;20062;-71
2022/06/03 12:44:36;;;;;;;16.65;5.22;;;;;;;;;;4964627;28;20043;-70
2022/06/03 12:47:21;;;;;;;13.73;5.85;;;;;;;;;;4963275;28;20063;-69
2022/06/03 12:49:52;;;;;;;11.32;4.22;;;;;;;;;;4967198;28;20145;-71
2022/06/03 12:52:21;;;;;;;12.02;4.45;;;;;;;;;;4959026;28;20046;-74
2022/06/03 12:54:55;;;;;;;10.57;4.47;;;;;;;;;;4959048;28;20054;-71
2022/06/03 12:57:26;;;;;;;15.45;4.57;;;;;;;;;;4961836;28;20046;-73
2022/06/03 12:59:56;;;;;;;12.70;4.30;;;;;;;;;;4961188;28;20249;-71
2022/06/03 13:02:25;;;;;;;10.15;4.40;;;;;;;;;;4965427;28;20080;-74
2022/06/03 13:04:53;;;;;;;12.38;3.85;;;;;;;;;;4959642;28;20543;-74
2022/06/03 13:07:28;;;;;;;9.00;4.00;;;;;;;;;;4963546;28;20072;-73
2022/06/03 13:10:03;;;;;;;16.00;5.28;;;;;;;;;;4959462;28;20050;-72
2022/06/03 13:12:47;;;;;;;9.80;4.03;;;;;;;;;;4954549;28;20670;-72
2022/06/03 13:15:16;;;;;;;13.13;3.78;;;;;;;;;;4962977;28;20054;-70
2022/06/03 13:18:10;;;;;;;11.25;3.67;;;;;;;;;;4961485;28;20059;-71
2022/06/03 13:21:05;;;;;;;10.93;3.97;;;;;;;;;;4962575;28;20055;-71
2022/06/03 13:23:51;;;;;;;13.48;4.40;;;;;;;;;;4960280;28;20117;-71
2022/06/03 13:26:21;;;;;;;13.57;3.28;;;;;;;;;;4959847;28;20047;-70
2022/06/03 13:28:48;;;;;;;9.85;4.28;;;;;;;;;;4960998;28;20043;-70
2022/06/03 13:31:22;;;;;;;11.88;3.67;;;;;;;;;;4964705;28;20046;-71
2022/06/03 13:34:01;;;;;;;12.15;3.33;;;;;;;;;;4959485;28;20059;-73
2022/06/03 13:36:37;;;;;;;11.70;3.10;;;;;;;;;;4959176;28;20062;-66
2022/06/03 13:39:05;;;;;;;8.50;3.03;;;;;;;;;;4963367;28;20249;-68
2022/06/03 13:44:47;;;;;;;9.30;3.25;;;;;;;;;;4959871;28;20246;-67
2022/06/03 13:47:20;;;;;;;12.80;3.47;;;;;;;;;;4959841;28;20517;-69
2022/06/03 13:49:52;;;;;;;9.10;2.85;;;;;;;;;;4956439;28;20061;-69
2022/06/03 13:52:27;;;;;;;9.40;3.30;;;;;;;;;;4960350;28;20045;-69
2022/06/03 13:55:01;;;;;;;14.40;3.72;;;;;;;;;;4958817;28;20937;-67
2022/06/03 13:57:35;;;;;;;10.68;3.05;;;;;;;;;;4960019;28;20421;-72
2022/06/03 14:00:16;;;;;;;9.30;2.80;;;;;;;;;;4965274;28;20051;-68
2022/06/03 14:02:44;;;;;;;7.85;2.70;;;;;;;;;;4962849;28;20154;-69
2022/06/03 14:05:14;;;;;;;14.23;3.08;;;;;;;;;;4963559;28;20430;-70
2022/06/03 14:07:53;;;;;;;9.18;3.08;;;;;;;;;;4966119;28;20074;-71
2022/06/03 14:10:25;;;;;;;8.82;3.22;;;;;;;;;;4961214;28;20043;-71
2022/06/03 14:13:22;;;;;;;10.05;3.17;;;;;;;;;;4961064;28;20477;-67
2022/06/03 14:15:57;;;;;;;13.18;3.50;;;;;;;;;;4961100;28;20053;-67
2022/06/03 14:18:45;;;;;;;12.60;3.47;;;;;;;;;;4964359;28;20051;-69
2022/06/03 14:21:21;;;;;;;9.05;3.17;;;;;;;;;;4960588;28;20043;-69
2022/06/03 14:23:49;;;;;;;11.10;3.22;;;;;;;;;;4961567;28;20059;-69
2022/06/03 14:26:20;;;;;;;8.82;2.90;;;;;;;;;;4963434;28;21050;-71
2022/06/03 14:28:53;;;;;;;10.27;3.42;;;;;;;;;;4961682;28;20046;-71
2022/06/03 14:31:38;;;;;;;8.38;2.95;;;;;;;;;;4959746;28;20055;-68
2022/06/03 14:34:35;;;;;;;12.75;3.10;;;;;;;;;;4955598;28;20110;-69
2022/06/03 14:37:05;;;;;;;12.57;3.38;;;;;;;;;;4955167;28;20061;-69
2022/06/03 14:39:36;;;;;;;9.63;3.03;;;;;;;;;;4964925;28;20439;-69
2022/06/03 14:42:08;;;;;;;8.35;2.83;;;;;;;;;;4963564;28;20065;-67
2022/06/03 14:44:36;;;;;;;11.32;3.38;;;;;;;;;;4961086;28;20075;-66
2022/06/03 14:47:06;;;;;;;10.07;3.03;;;;;;;;;;4958988;28;20891;-71
2022/06/03 14:49:44;;;;;;;10.02;3.03;;;;;;;;;;4961301;28;20070;-70
2022/06/03 14:52:15;;;;;;;14.73;3.78;;;;;;;;;;4966642;28;20114;-70
2022/06/03 14:54:53;;;;;;;13.55;3.70;;;;;;;;;;4962489;28;20708;-67
2022/06/03 14:57:56;;;;;;;10.60;3.13;;;;;;;;;;4963381;28;20066;-69
2022/06/03 15:00:47;;;;;;;10.43;3.13;;;;;;;;;;4959478;28;20054;-67
2022/06/03 15:03:22;;;;;;;9.75;3.35;;;;;;;;;;4965832;28;20126;-67
2022/06/03 15:05:54;;;;;;;9.48;3.40;;;;;;;;;;4963137;28;20118;-67
2022/06/03 15:08:28;;;;;;;13.45;3.25;;;;;;;;;;4963400;28;20043;-67
2022/06/03 15:11:06;;;;;;;9.50;3.20;;;;;;;;;;4961811;28;20047;-68
2022/06/03 15:13:32;;;;;;;12.82;3.22;;;;;;;;;;4961548;28;20081;-68
2022/06/03 15:16:04;;;;;;;9.40;3.47;;;;;;;;;;4963864;28;20701;-65
2022/06/03 15:18:30;;;;;;;9.00;3.00;;;;;;;;;;4964554;28;20058;-67
2022/06/03 15:21:11;;;;;;;15.52;3.40;;;;;;;;;;4965498;28;20055;-67
2022/06/03 15:23:40;;;;;;;15.55;3.22;;;;;;;;;;4967563;28;20211;-68
2022/06/03 15:26:14;;;;;;;10.85;3.58;;;;;;;;;;4964134;28;20155;-68
2022/06/03 15:28:45;;;;;;;10.45;3.33;;;;;;;;;;4967503;28;20397;-71
2022/06/03 15:31:19;;;;;;;13.18;3.08;;;;;;;;;;4964233;28;20050;-69
2022/06/03 15:33:53;;;;;;;14.30;3.13;;;;;;;;;;4962781;28;20055;-67
2022/06/03 15:36:22;;;;;;;11.32;3.60;;;;;;;;;;4966585;28;20050;-69
2022/06/03 15:38:55;;;;;;;12.13;3.13;;;;;;;;;;4964696;28;20038;-66
2022/06/03 15:41:27;;;;;;;8.88;2.80;;;;;;;;;;4965590;28;20354;-68
2022/06/03 15:43:57;;;;;;;12.25;2.97;;;;;;;;;;4964322;28;20049;-69
2022/06/03 15:46:28;;;;;;;11.57;3.42;;;;;;;;;;4968111;28;20042;-70
2022/06/03 15:49:07;;;;;;;8.07;3.17;;;;;;;;;;4965779;28;20058;-69
2022/06/03 15:51:47;;;;;;;9.20;2.67;;;;;;;;;;4968025;28;20155;-68
2022/06/03 15:54:27;;;;;;;12.57;3.00;;;;;;;;;;4965012;28;20043;-68
2022/06/03 15:57:17;;;;;;;6.47;2.72;;;;;;;;;;4965854;28;20058;-67
2022/06/03 15:59:52;;;;;;;13.48;3.33;;;;;;;;;;4966210;28;20402;-68
2022/06/03 16:02:51;;;;;;;8.65;2.90;;;;;;;;;;4962702;28;20038;-67
2022/06/03 16:05:19;;;;;;;9.23;2.92;;;;;;;;;;4960563;28;20272;-66
2022/06/03 16:08:14;;;;;;;13.50;2.90;;;;;;;;;;4965223;28;20069;-69
2022/06/03 16:11:13;;;;;;;13.60;3.63;;;;;;;;;;4965976;28;20368;-69
2022/06/03 16:14:08;;;;;;;9.07;2.95;;;;;;;;;;4965381;28;20066;-70
2022/06/03 16:17:00;;;;;;;9.57;3.28;;;;;;;;;;4964898;28;20505;-68
2022/06/03 16:19:47;;;;;;;12.68;3.20;;;;;;;;;;4964881;28;20039;-69
2022/06/03 16:22:28;;;;;;;14.65;3.28;;;;;;;;;;4966007;28;20039;-68